sensor_id;sensor_type;location;lat;lon;timestamp;temperature;humidity
42095;DHT22;27753;55.724;37.612;2023-11-19T00:00:34;-4.10;91.20
42095;DHT22;27753;55.724;37.612;2023-11-19T00:03:01;-4.20;91.30
42095;DHT22;27753;55.724;37.612;2023-11-19T00:05:27;-4.30;91.40
42095;DHT22;27753;55.724;37.612;2023-11-19T00:07:53;-4.30;91.60
42095;DHT22;27753;55.724;37.612;2023-11-19T00:10:20;-4.40;91.60
42095;DHT22;27753;55.724;37.612;2023-11-19T00:12:47;-4.50;91.70
42095;DHT22;27753;55.724;37.612;2023-11-19T00:15:14;-4.60;91.70
42095;DHT22;27753;55.724;37.612;2023-11-19T00:17:41;-4.60;91.80
42095;DHT22;27753;55.724;37.612;2023-11-19T00:20:13;-4.70;91.80
42095;DHT22;27753;55.724;37.612;2023-11-19T00:22:41;-4.70;91.90
42095;DHT22;27753;55.724;37.612;2023-11-19T00:25:10;-4.80;91.90
42095;DHT22;27753;55.724;37.612;2023-11-19T00:27:36;-4.80;92.00
42095;DHT22;27753;55.724;37.612;2023-11-19T00:30:05;-4.90;92.00
42095;DHT22;27753;55.724;37.612;2023-11-19T00:32:32;-4.90;92.10
42095;DHT22;27753;55.724;37.612;2023-11-19T00:34:58;-5.00;92.10
42095;DHT22;27753;55.724;37.612;2023-11-19T00:37:24;-5.00;92.20
42095;DHT22;27753;55.724;37.612;2023-11-19T00:39:50;-5.00;92.30
42095;DHT22;27753;55.724;37.612;2023-11-19T00:42:17;-5.10;92.30
42095;DHT22;27753;55.724;37.612;2023-11-19T00:44:43;-5.10;92.40
42095;DHT22;27753;55.724;37.612;2023-11-19T00:47:09;-5.10;92.50
42095;DHT22;27753;55.724;37.612;2023-11-19T00:49:35;-5.20;92.60
42095;DHT22;27753;55.724;37.612;2023-11-19T00:52:01;-5.20;92.70
42095;DHT22;27753;55.724;37.612;2023-11-19T00:54:28;-5.20;92.70
42095;DHT22;27753;55.724;37.612;2023-11-19T00:56:53;-5.10;92.80
42095;DHT22;27753;55.724;37.612;2023-11-19T00:59:19;-5.10;92.80
42095;DHT22;27753;55.724;37.612;2023-11-19T01:01:45;-5.10;92.80
42095;DHT22;27753;55.724;37.612;2023-11-19T01:04:14;-5.10;93.10
42095;DHT22;27753;55.724;37.612;2023-11-19T01:06:40;-5.10;92.90
42095;DHT22;27753;55.724;37.612;2023-11-19T01:09:07;-5.20;93.00
42095;DHT22;27753;55.724;37.612;2023-11-19T01:11:34;-5.20;93.00
42095;DHT22;27753;55.724;37.612;2023-11-19T01:14:00;-5.20;92.90
42095;DHT22;27753;55.724;37.612;2023-11-19T01:16:26;-5.20;93.00
42095;DHT22;27753;55.724;37.612;2023-11-19T01:18:52;-5.30;93.10
42095;DHT22;27753;55.724;37.612;2023-11-19T01:21:18;-5.30;93.20
42095;DHT22;27753;55.724;37.612;2023-11-19T01:23:45;-5.30;93.20
42095;DHT22;27753;55.724;37.612;2023-11-19T01:26:11;-5.30;93.20
42095;DHT22;27753;55.724;37.612;2023-11-19T01:28:39;-5.30;93.30
42095;DHT22;27753;55.724;37.612;2023-11-19T01:31:15;-5.20;93.30
42095;DHT22;27753;55.724;37.612;2023-11-19T01:33:41;-5.20;93.40
42095;DHT22;27753;55.724;37.612;2023-11-19T01:36:07;-5.20;93.40
42095;DHT22;27753;55.724;37.612;2023-11-19T01:38:34;-5.20;93.50
42095;DHT22;27753;55.724;37.612;2023-11-19T01:41:00;-5.20;93.40
42095;DHT22;27753;55.724;37.612;2023-11-19T01:43:46;-5.30;93.40
42095;DHT22;27753;55.724;37.612;2023-11-19T01:46:12;-5.30;93.50
42095;DHT22;27753;55.724;37.612;2023-11-19T01:48:45;-5.40;93.50
42095;DHT22;27753;55.724;37.612;2023-11-19T01:51:16;-5.40;93.70
42095;DHT22;27753;55.724;37.612;2023-11-19T01:53:43;-5.30;93.70
42095;DHT22;27753;55.724;37.612;2023-11-19T01:56:11;-5.30;93.70
42095;DHT22;27753;55.724;37.612;2023-11-19T01:58:38;-5.40;93.70
42095;DHT22;27753;55.724;37.612;2023-11-19T02:01:06;-5.40;93.70
42095;DHT22;27753;55.724;37.612;2023-11-19T02:03:33;-5.40;93.80
42095;DHT22;27753;55.724;37.612;2023-11-19T02:05:59;-5.40;93.80
42095;DHT22;27753;55.724;37.612;2023-11-19T02:08:26;-5.30;93.90
42095;DHT22;27753;55.724;37.612;2023-11-19T02:10:52;-5.30;93.90
42095;DHT22;27753;55.724;37.612;2023-11-19T02:13:20;-5.30;93.90
42095;DHT22;27753;55.724;37.612;2023-11-19T02:15:46;-5.30;94.00
42095;DHT22;27753;55.724;37.612;2023-11-19T02:18:22;-5.30;94.00
42095;DHT22;27753;55.724;37.612;2023-11-19T02:20:50;-5.30;94.00
42095;DHT22;27753;55.724;37.612;2023-11-19T02:23:16;-5.30;94.00
42095;DHT22;27753;55.724;37.612;2023-11-19T02:25:45;-5.30;94.00
42095;DHT22;27753;55.724;37.612;2023-11-19T02:28:13;-5.30;94.00
42095;DHT22;27753;55.724;37.612;2023-11-19T02:30:39;-5.30;94.00
42095;DHT22;27753;55.724;37.612;2023-11-19T02:33:05;-5.30;94.10
42095;DHT22;27753;55.724;37.612;2023-11-19T02:35:32;-5.30;94.10
42095;DHT22;27753;55.724;37.612;2023-11-19T02:37:59;-5.30;94.10
42095;DHT22;27753;55.724;37.612;2023-11-19T02:40:26;-5.30;94.00
42095;DHT22;27753;55.724;37.612;2023-11-19T02:42:53;-5.30;94.00
42095;DHT22;27753;55.724;37.612;2023-11-19T02:45:20;-5.30;94.00
42095;DHT22;27753;55.724;37.612;2023-11-19T02:47:47;-5.30;94.00
42095;DHT22;27753;55.724;37.612;2023-11-19T02:50:13;-5.30;94.00
42095;DHT22;27753;55.724;37.612;2023-11-19T02:52:41;-5.30;94.00
42095;DHT22;27753;55.724;37.612;2023-11-19T02:55:11;-5.20;94.00
42095;DHT22;27753;55.724;37.612;2023-11-19T02:57:40;-5.20;94.10
42095;DHT22;27753;55.724;37.612;2023-11-19T03:00:20;-5.10;94.00
42095;DHT22;27753;55.724;37.612;2023-11-19T03:02:50;-5.00;94.00
42095;DHT22;27753;55.724;37.612;2023-11-19T03:05:26;-4.90;93.90
42095;DHT22;27753;55.724;37.612;2023-11-19T03:07:55;-4.90;93.90
42095;DHT22;27753;55.724;37.612;2023-11-19T03:10:22;-4.80;93.90
42095;DHT22;27753;55.724;37.612;2023-11-19T03:12:48;-4.70;93.80
42095;DHT22;27753;55.724;37.612;2023-11-19T03:15:13;-4.60;93.70
42095;DHT22;27753;55.724;37.612;2023-11-19T03:17:40;-4.60;93.50
42095;DHT22;27753;55.724;37.612;2023-11-19T03:20:11;-4.50;93.50
42095;DHT22;27753;55.724;37.612;2023-11-19T03:22:41;-4.40;93.40
42095;DHT22;27753;55.724;37.612;2023-11-19T03:25:08;-4.40;93.40
42095;DHT22;27753;55.724;37.612;2023-11-19T03:27:37;-4.40;93.30
42095;DHT22;27753;55.724;37.612;2023-11-19T03:30:10;-4.40;93.20
42095;DHT22;27753;55.724;37.612;2023-11-19T03:32:36;-4.40;93.10
42095;DHT22;27753;55.724;37.612;2023-11-19T03:35:03;-4.40;93.00
42095;DHT22;27753;55.724;37.612;2023-11-19T03:37:35;-4.50;93.00
42095;DHT22;27753;55.724;37.612;2023-11-19T03:40:02;-4.40;93.00
42095;DHT22;27753;55.724;37.612;2023-11-19T03:42:28;-4.50;93.00
42095;DHT22;27753;55.724;37.612;2023-11-19T03:44:56;-4.40;92.90
42095;DHT22;27753;55.724;37.612;2023-11-19T03:47:22;-4.40;92.90
42095;DHT22;27753;55.724;37.612;2023-11-19T03:49:48;-4.40;92.90
42095;DHT22;27753;55.724;37.612;2023-11-19T03:52:15;-4.40;92.80
42095;DHT22;27753;55.724;37.612;2023-11-19T03:54:41;-4.30;92.70
42095;DHT22;27753;55.724;37.612;2023-11-19T03:57:06;-4.30;92.60
42095;DHT22;27753;55.724;37.612;2023-11-19T03:59:32;-4.20;92.60
42095;DHT22;27753;55.724;37.612;2023-11-19T04:01:59;-4.20;92.50
42095;DHT22;27753;55.724;37.612;2023-11-19T04:04:26;-4.20;92.40
42095;DHT22;27753;55.724;37.612;2023-11-19T04:06:53;-4.20;92.40
42095;DHT22;27753;55.724;37.612;2023-11-19T04:09:19;-4.20;92.20
42095;DHT22;27753;55.724;37.612;2023-11-19T04:11:44;-4.20;92.00
42095;DHT22;27753;55.724;37.612;2023-11-19T04:14:13;-4.20;92.10
42095;DHT22;27753;55.724;37.612;2023-11-19T04:16:40;-4.30;92.10
42095;DHT22;27753;55.724;37.612;2023-11-19T04:19:06;-4.30;92.00
42095;DHT22;27753;55.724;37.612;2023-11-19T04:21:32;-4.40;92.00
42095;DHT22;27753;55.724;37.612;2023-11-19T04:23:58;-4.40;92.10
42095;DHT22;27753;55.724;37.612;2023-11-19T04:26:24;-4.40;92.00
42095;DHT22;27753;55.724;37.612;2023-11-19T04:28:50;-4.40;92.00
42095;DHT22;27753;55.724;37.612;2023-11-19T04:31:16;-4.40;92.20
42095;DHT22;27753;55.724;37.612;2023-11-19T04:33:42;-4.40;92.40
42095;DHT22;27753;55.724;37.612;2023-11-19T04:36:12;-4.40;92.60
42095;DHT22;27753;55.724;37.612;2023-11-19T04:38:40;-4.40;92.70
42095;DHT22;27753;55.724;37.612;2023-11-19T04:41:06;-4.30;92.80
42095;DHT22;27753;55.724;37.612;2023-11-19T04:43:32;-4.30;93.00
42095;DHT22;27753;55.724;37.612;2023-11-19T04:45:58;-4.30;93.20
42095;DHT22;27753;55.724;37.612;2023-11-19T04:48:24;-4.30;93.40
42095;DHT22;27753;55.724;37.612;2023-11-19T04:50:50;-4.20;93.50
42095;DHT22;27753;55.724;37.612;2023-11-19T04:53:19;-4.20;93.50
42095;DHT22;27753;55.724;37.612;2023-11-19T04:55:45;-4.20;93.50
42095;DHT22;27753;55.724;37.612;2023-11-19T04:58:11;-4.20;93.60
42095;DHT22;27753;55.724;37.612;2023-11-19T05:00:37;-4.20;94.00
42095;DHT22;27753;55.724;37.612;2023-11-19T05:03:03;-4.20;93.80
42095;DHT22;27753;55.724;37.612;2023-11-19T05:05:29;-4.10;93.80
42095;DHT22;27753;55.724;37.612;2023-11-19T05:07:55;-4.10;93.80
42095;DHT22;27753;55.724;37.612;2023-11-19T05:10:21;-4.00;93.90
42095;DHT22;27753;55.724;37.612;2023-11-19T05:12:47;-4.00;93.80
42095;DHT22;27753;55.724;37.612;2023-11-19T05:15:13;-4.00;93.80
42095;DHT22;27753;55.724;37.612;2023-11-19T05:17:39;-3.90;93.80
42095;DHT22;27753;55.724;37.612;2023-11-19T05:20:06;-3.90;93.70
42095;DHT22;27753;55.724;37.612;2023-11-19T05:22:40;-3.80;93.70
42095;DHT22;27753;55.724;37.612;2023-11-19T05:25:06;-3.80;93.70
42095;DHT22;27753;55.724;37.612;2023-11-19T05:27:32;-3.80;93.60
42095;DHT22;27753;55.724;37.612;2023-11-19T05:29:58;-3.80;93.60
42095;DHT22;27753;55.724;37.612;2023-11-19T05:32:24;-3.70;93.60
42095;DHT22;27753;55.724;37.612;2023-11-19T05:34:50;-3.70;93.40
42095;DHT22;27753;55.724;37.612;2023-11-19T05:37:15;-3.70;93.20
42095;DHT22;27753;55.724;37.612;2023-11-19T05:39:42;-3.80;93.10
42095;DHT22;27753;55.724;37.612;2023-11-19T05:42:07;-3.70;93.00
42095;DHT22;27753;55.724;37.612;2023-11-19T05:44:35;-3.70;93.00
42095;DHT22;27753;55.724;37.612;2023-11-19T05:47:01;-3.70;92.90
42095;DHT22;27753;55.724;37.612;2023-11-19T05:49:26;-3.60;93.20
42095;DHT22;27753;55.724;37.612;2023-11-19T05:51:52;-3.60;92.80
42095;DHT22;27753;55.724;37.612;2023-11-19T05:54:21;-3.60;92.80
42095;DHT22;27753;55.724;37.612;2023-11-19T05:56:48;-3.50;92.70
42095;DHT22;27753;55.724;37.612;2023-11-19T05:59:14;-3.50;92.60
42095;DHT22;27753;55.724;37.612;2023-11-19T06:01:43;-3.50;92.60
42095;DHT22;27753;55.724;37.612;2023-11-19T06:04:09;-3.60;92.30
42095;DHT22;27753;55.724;37.612;2023-11-19T06:06:36;-3.60;92.30
42095;DHT22;27753;55.724;37.612;2023-11-19T06:09:03;-3.60;92.10
42095;DHT22;27753;55.724;37.612;2023-11-19T06:11:29;-3.60;92.00
42095;DHT22;27753;55.724;37.612;2023-11-19T06:13:55;-3.60;91.90
42095;DHT22;27753;55.724;37.612;2023-11-19T06:16:21;-3.60;91.80
42095;DHT22;27753;55.724;37.612;2023-11-19T06:18:47;-3.60;91.60
42095;DHT22;27753;55.724;37.612;2023-11-19T06:21:13;-3.60;91.60
42095;DHT22;27753;55.724;37.612;2023-11-19T06:23:39;-3.60;91.60
42095;DHT22;27753;55.724;37.612;2023-11-19T06:26:05;-3.60;91.70
42095;DHT22;27753;55.724;37.612;2023-11-19T06:28:32;-3.50;91.70
42095;DHT22;27753;55.724;37.612;2023-11-19T06:30:57;-3.50;91.60
42095;DHT22;27753;55.724;37.612;2023-11-19T06:33:24;-3.50;91.60
42095;DHT22;27753;55.724;37.612;2023-11-19T06:35:50;-3.50;91.50
42095;DHT22;27753;55.724;37.612;2023-11-19T06:38:16;-3.70;91.60
42095;DHT22;27753;55.724;37.612;2023-11-19T06:40:42;-3.80;91.70
42095;DHT22;27753;55.724;37.612;2023-11-19T06:43:08;-3.90;91.90
42095;DHT22;27753;55.724;37.612;2023-11-19T06:45:34;-4.10;92.30
42095;DHT22;27753;55.724;37.612;2023-11-19T06:48:04;-4.30;92.60
42095;DHT22;27753;55.724;37.612;2023-11-19T06:50:31;-4.40;93.10
42095;DHT22;27753;55.724;37.612;2023-11-19T06:52:57;-4.30;93.30
42095;DHT22;27753;55.724;37.612;2023-11-19T06:55:23;-4.20;93.40
42095;DHT22;27753;55.724;37.612;2023-11-19T06:57:49;-4.00;93.30
42095;DHT22;27753;55.724;37.612;2023-11-19T07:00:15;-4.00;93.20
42095;DHT22;27753;55.724;37.612;2023-11-19T07:02:42;-3.90;93.10
42095;DHT22;27753;55.724;37.612;2023-11-19T07:05:10;-4.00;93.10
42095;DHT22;27753;55.724;37.612;2023-11-19T07:07:37;-4.00;93.00
42095;DHT22;27753;55.724;37.612;2023-11-19T07:10:08;-4.30;93.10
42095;DHT22;27753;55.724;37.612;2023-11-19T07:12:35;-4.40;93.30
42095;DHT22;27753;55.724;37.612;2023-11-19T07:15:02;-4.40;93.80
42095;DHT22;27753;55.724;37.612;2023-11-19T07:17:30;-4.30;93.60
42095;DHT22;27753;55.724;37.612;2023-11-19T07:19:56;-4.20;93.90
42095;DHT22;27753;55.724;37.612;2023-11-19T07:22:25;-4.20;93.30
42095;DHT22;27753;55.724;37.612;2023-11-19T07:24:51;-4.30;93.30
42095;DHT22;27753;55.724;37.612;2023-11-19T07:27:19;-4.10;93.50
42095;DHT22;27753;55.724;37.612;2023-11-19T07:29:45;-4.00;93.40
42095;DHT22;27753;55.724;37.612;2023-11-19T07:32:12;-4.00;93.20
42095;DHT22;27753;55.724;37.612;2023-11-19T07:34:39;-4.00;93.00
42095;DHT22;27753;55.724;37.612;2023-11-19T07:37:05;-4.00;93.00
42095;DHT22;27753;55.724;37.612;2023-11-19T07:39:31;-4.10;93.10
42095;DHT22;27753;55.724;37.612;2023-11-19T07:41:58;-4.00;93.20
42095;DHT22;27753;55.724;37.612;2023-11-19T07:44:24;-4.00;93.20
42095;DHT22;27753;55.724;37.612;2023-11-19T07:46:52;-3.90;93.10
42095;DHT22;27753;55.724;37.612;2023-11-19T07:49:18;-3.80;93.20
42095;DHT22;27753;55.724;37.612;2023-11-19T07:51:44;-3.70;93.10
42095;DHT22;27753;55.724;37.612;2023-11-19T07:54:10;-3.70;92.80
42095;DHT22;27753;55.724;37.612;2023-11-19T07:56:36;-3.90;92.40
42095;DHT22;27753;55.724;37.612;2023-11-19T07:59:03;-4.00;92.60
42095;DHT22;27753;55.724;37.612;2023-11-19T08:01:29;-4.00;92.70
42095;DHT22;27753;55.724;37.612;2023-11-19T08:03:58;-3.90;92.80
42095;DHT22;27753;55.724;37.612;2023-11-19T08:06:24;-3.90;92.80
42095;DHT22;27753;55.724;37.612;2023-11-19T08:08:50;-3.90;92.80
42095;DHT22;27753;55.724;37.612;2023-11-19T08:11:17;-3.90;92.80
42095;DHT22;27753;55.724;37.612;2023-11-19T08:13:45;-3.70;93.00
42095;DHT22;27753;55.724;37.612;2023-11-19T08:16:11;-3.50;92.80
42095;DHT22;27753;55.724;37.612;2023-11-19T08:18:37;-3.30;92.60
42095;DHT22;27753;55.724;37.612;2023-11-19T08:21:03;-3.40;92.10
42095;DHT22;27753;55.724;37.612;2023-11-19T08:23:30;-3.30;92.30
42095;DHT22;27753;55.724;37.612;2023-11-19T08:25:56;-3.30;92.00
42095;DHT22;27753;55.724;37.612;2023-11-19T08:28:22;-3.40;91.30
42095;DHT22;27753;55.724;37.612;2023-11-19T08:30:48;-3.80;91.20
42095;DHT22;27753;55.724;37.612;2023-11-19T08:33:13;-4.00;91.50
42095;DHT22;27753;55.724;37.612;2023-11-19T08:35:40;-4.10;92.00
42095;DHT22;27753;55.724;37.612;2023-11-19T08:38:06;-4.00;92.20
42095;DHT22;27753;55.724;37.612;2023-11-19T08:40:32;-4.00;92.20
42095;DHT22;27753;55.724;37.612;2023-11-19T08:42:58;-3.90;92.40
42095;DHT22;27753;55.724;37.612;2023-11-19T08:45:24;-3.70;92.60
42095;DHT22;27753;55.724;37.612;2023-11-19T08:47:50;-3.50;93.00
42095;DHT22;27753;55.724;37.612;2023-11-19T08:50:16;-3.30;92.10
42095;DHT22;27753;55.724;37.612;2023-11-19T08:52:42;-3.30;91.50
42095;DHT22;27753;55.724;37.612;2023-11-19T08:55:08;-3.50;91.00
42095;DHT22;27753;55.724;37.612;2023-11-19T08:57:35;-3.60;91.40
42095;DHT22;27753;55.724;37.612;2023-11-19T09:00:01;-3.60;91.30
42095;DHT22;27753;55.724;37.612;2023-11-19T09:02:33;-3.50;91.30
42095;DHT22;27753;55.724;37.612;2023-11-19T09:04:59;-3.50;91.10
42095;DHT22;27753;55.724;37.612;2023-11-19T09:07:25;-3.40;91.10
42095;DHT22;27753;55.724;37.612;2023-11-19T09:09:51;-3.30;91.30
42095;DHT22;27753;55.724;37.612;2023-11-19T09:12:17;-3.20;91.00
42095;DHT22;27753;55.724;37.612;2023-11-19T09:14:43;-3.30;90.80
42095;DHT22;27753;55.724;37.612;2023-11-19T09:17:08;-3.30;91.00
42095;DHT22;27753;55.724;37.612;2023-11-19T09:19:35;-3.30;91.00
42095;DHT22;27753;55.724;37.612;2023-11-19T09:22:01;-3.10;91.00
42095;DHT22;27753;55.724;37.612;2023-11-19T09:24:31;-3.10;90.70
42095;DHT22;27753;55.724;37.612;2023-11-19T09:26:56;-3.10;90.60
42095;DHT22;27753;55.724;37.612;2023-11-19T09:29:23;-3.20;90.30
42095;DHT22;27753;55.724;37.612;2023-11-19T09:31:49;-3.30;90.40
42095;DHT22;27753;55.724;37.612;2023-11-19T09:34:15;-3.50;90.10
42095;DHT22;27753;55.724;37.612;2023-11-19T09:36:41;-3.70;90.40
42095;DHT22;27753;55.724;37.612;2023-11-19T09:39:10;-3.80;90.40
42095;DHT22;27753;55.724;37.612;2023-11-19T09:41:36;-3.80;90.50
42095;DHT22;27753;55.724;37.612;2023-11-19T09:44:02;-3.80;90.60
42095;DHT22;27753;55.724;37.612;2023-11-19T09:46:29;-3.80;90.70
42095;DHT22;27753;55.724;37.612;2023-11-19T09:48:56;-3.80;90.70
42095;DHT22;27753;55.724;37.612;2023-11-19T09:51:23;-3.70;90.70
42095;DHT22;27753;55.724;37.612;2023-11-19T09:53:49;-3.90;90.20
42095;DHT22;27753;55.724;37.612;2023-11-19T09:56:15;-4.20;90.10
42095;DHT22;27753;55.724;37.612;2023-11-19T09:58:46;-4.20;90.60
42095;DHT22;27753;55.724;37.612;2023-11-19T10:01:12;-4.30;90.60
42095;DHT22;27753;55.724;37.612;2023-11-19T10:03:42;-4.30;90.30
42095;DHT22;27753;55.724;37.612;2023-11-19T10:06:10;-4.40;90.50
42095;DHT22;27753;55.724;37.612;2023-11-19T10:08:40;-4.40;90.50
42095;DHT22;27753;55.724;37.612;2023-11-19T10:11:07;-4.40;90.60
42095;DHT22;27753;55.724;37.612;2023-11-19T10:13:36;-4.30;90.60
42095;DHT22;27753;55.724;37.612;2023-11-19T10:16:09;-4.30;90.40
42095;DHT22;27753;55.724;37.612;2023-11-19T10:18:37;-4.40;90.20
42095;DHT22;27753;55.724;37.612;2023-11-19T10:21:06;-4.60;90.20
42095;DHT22;27753;55.724;37.612;2023-11-19T10:23:52;-4.60;90.40
42095;DHT22;27753;55.724;37.612;2023-11-19T10:26:20;-4.60;90.50
42095;DHT22;27753;55.724;37.612;2023-11-19T10:28:47;-4.50;90.40
42095;DHT22;27753;55.724;37.612;2023-11-19T10:31:17;-4.50;90.50
42095;DHT22;27753;55.724;37.612;2023-11-19T10:33:46;-4.30;90.60
42095;DHT22;27753;55.724;37.612;2023-11-19T10:36:16;-4.20;90.60
42095;DHT22;27753;55.724;37.612;2023-11-19T10:38:56;-4.10;90.50
42095;DHT22;27753;55.724;37.612;2023-11-19T10:41:32;-4.00;90.30
42095;DHT22;27753;55.724;37.612;2023-11-19T10:44:01;-4.00;90.10
42095;DHT22;27753;55.724;37.612;2023-11-19T10:46:48;-3.90;90.20
42095;DHT22;27753;55.724;37.612;2023-11-19T10:49:22;-3.90;90.00
42095;DHT22;27753;55.724;37.612;2023-11-19T10:51:49;-4.00;89.60
42095;DHT22;27753;55.724;37.612;2023-11-19T10:54:21;-4.00;89.70
42095;DHT22;27753;55.724;37.612;2023-11-19T10:56:53;-4.10;89.90
42095;DHT22;27753;55.724;37.612;2023-11-19T10:59:21;-4.20;88.90
42095;DHT22;27753;55.724;37.612;2023-11-19T11:01:48;-4.30;89.30
42095;DHT22;27753;55.724;37.612;2023-11-19T11:04:22;-4.30;89.40
42095;DHT22;27753;55.724;37.612;2023-11-19T11:07:10;-4.20;89.60
42095;DHT22;27753;55.724;37.612;2023-11-19T11:09:50;-4.20;89.80
42095;DHT22;27753;55.724;37.612;2023-11-19T11:12:38;-4.30;89.10
42095;DHT22;27753;55.724;37.612;2023-11-19T11:15:07;-4.20;89.60
42095;DHT22;27753;55.724;37.612;2023-11-19T11:17:34;-4.10;89.80
42095;DHT22;27753;55.724;37.612;2023-11-19T11:20:02;-4.10;89.70
42095;DHT22;27753;55.724;37.612;2023-11-19T11:22:29;-3.90;89.80
42095;DHT22;27753;55.724;37.612;2023-11-19T11:25:23;-3.80;89.50
42095;DHT22;27753;55.724;37.612;2023-11-19T11:28:03;-3.70;89.20
42095;DHT22;27753;55.724;37.612;2023-11-19T11:31:04;-3.60;88.90
42095;DHT22;27753;55.724;37.612;2023-11-19T11:36:29;-3.60;88.30
42095;DHT22;27753;55.724;37.612;2023-11-19T11:38:58;-3.70;87.60
42095;DHT22;27753;55.724;37.612;2023-11-19T11:41:33;-3.70;87.70
42095;DHT22;27753;55.724;37.612;2023-11-19T11:43:59;-3.70;87.50
42095;DHT22;27753;55.724;37.612;2023-11-19T11:49:02;-3.80;86.90
42095;DHT22;27753;55.724;37.612;2023-11-19T11:57:21;-3.70;86.70
42095;DHT22;27753;55.724;37.612;2023-11-19T11:59:48;-3.70;86.40
42095;DHT22;27753;55.724;37.612;2023-11-19T12:02:19;-3.70;86.20
42095;DHT22;27753;55.724;37.612;2023-11-19T12:04:51;-3.70;86.20
42095;DHT22;27753;55.724;37.612;2023-11-19T12:07:19;-3.70;86.30
42095;DHT22;27753;55.724;37.612;2023-11-19T12:10:10;-3.70;86.10
42095;DHT22;27753;55.724;37.612;2023-11-19T12:12:40;-3.70;85.80
42095;DHT22;27753;55.724;37.612;2023-11-19T12:15:08;-3.80;85.50
42095;DHT22;27753;55.724;37.612;2023-11-19T12:17:41;-3.90;86.00
42095;DHT22;27753;55.724;37.612;2023-11-19T12:20:10;-3.90;86.10
42095;DHT22;27753;55.724;37.612;2023-11-19T12:22:40;-3.80;86.40
42095;DHT22;27753;55.724;37.612;2023-11-19T12:25:07;-3.70;86.50
42095;DHT22;27753;55.724;37.612;2023-11-19T12:27:35;-3.70;86.10
42095;DHT22;27753;55.724;37.612;2023-11-19T12:30:02;-3.80;85.70
42095;DHT22;27753;55.724;37.612;2023-11-19T12:32:50;-3.80;86.20
42095;DHT22;27753;55.724;37.612;2023-11-19T12:35:18;-3.80;86.50
42095;DHT22;27753;55.724;37.612;2023-11-19T12:37:51;-4.00;85.70
42095;DHT22;27753;55.724;37.612;2023-11-19T12:42:53;-4.00;86.60
42095;DHT22;27753;55.724;37.612;2023-11-19T12:45:20;-3.90;86.80
42095;DHT22;27753;55.724;37.612;2023-11-19T12:47:49;-3.90;86.60
42095;DHT22;27753;55.724;37.612;2023-11-19T12:50:17;-3.90;85.90
42095;DHT22;27753;55.724;37.612;2023-11-19T12:53:05;-4.00;85.90
42095;DHT22;27753;55.724;37.612;2023-11-19T12:55:31;-4.00;86.30
42095;DHT22;27753;55.724;37.612;2023-11-19T12:57:58;-4.00;85.80
42095;DHT22;27753;55.724;37.612;2023-11-19T13:00:26;-4.10;86.00
42095;DHT22;27753;55.724;37.612;2023-11-19T13:02:52;-4.00;86.20
42095;DHT22;27753;55.724;37.612;2023-11-19T13:05:28;-4.00;86.00
42095;DHT22;27753;55.724;37.612;2023-11-19T13:08:02;-4.10;85.30
42095;DHT22;27753;55.724;37.612;2023-11-19T13:10:29;-4.20;85.70
42095;DHT22;27753;55.724;37.612;2023-11-19T13:13:06;-4.20;86.10
42095;DHT22;27753;55.724;37.612;2023-11-19T13:15:34;-4.10;86.60
42095;DHT22;27753;55.724;37.612;2023-11-19T13:18:01;-4.00;86.60
42095;DHT22;27753;55.724;37.612;2023-11-19T13:20:27;-3.90;86.40
42095;DHT22;27753;55.724;37.612;2023-11-19T13:23:04;-3.90;86.10
42095;DHT22;27753;55.724;37.612;2023-11-19T13:25:31;-3.80;85.80
42095;DHT22;27753;55.724;37.612;2023-11-19T13:28:01;-3.80;85.80
42095;DHT22;27753;55.724;37.612;2023-11-19T13:30:28;-3.80;85.60
42095;DHT22;27753;55.724;37.612;2023-11-19T13:32:55;-3.80;85.40
42095;DHT22;27753;55.724;37.612;2023-11-19T13:35:23;-3.80;85.20
42095;DHT22;27753;55.724;37.612;2023-11-19T13:37:49;-3.80;85.00
42095;DHT22;27753;55.724;37.612;2023-11-19T13:40:15;-3.80;85.00
42095;DHT22;27753;55.724;37.612;2023-11-19T13:42:42;-3.90;84.70
42095;DHT22;27753;55.724;37.612;2023-11-19T13:45:12;-4.00;84.80
42095;DHT22;27753;55.724;37.612;2023-11-19T13:47:42;-4.10;84.50
42095;DHT22;27753;55.724;37.612;2023-11-19T13:50:10;-4.30;85.00
42095;DHT22;27753;55.724;37.612;2023-11-19T13:52:37;-4.40;85.60
42095;DHT22;27753;55.724;37.612;2023-11-19T13:55:07;-4.50;86.20
42095;DHT22;27753;55.724;37.612;2023-11-19T13:57:38;-4.50;86.50
42095;DHT22;27753;55.724;37.612;2023-11-19T14:00:06;-4.60;86.70
42095;DHT22;27753;55.724;37.612;2023-11-19T14:02:35;-4.60;87.00
42095;DHT22;27753;55.724;37.612;2023-11-19T14:05:01;-4.60;87.10
42095;DHT22;27753;55.724;37.612;2023-11-19T14:07:28;-4.60;87.30
42095;DHT22;27753;55.724;37.612;2023-11-19T14:10:00;-4.60;87.60
42095;DHT22;27753;55.724;37.612;2023-11-19T14:12:27;-4.60;87.90
42095;DHT22;27753;55.724;37.612;2023-11-19T14:14:53;-4.60;88.10
42095;DHT22;27753;55.724;37.612;2023-11-19T14:17:20;-4.60;88.30
42095;DHT22;27753;55.724;37.612;2023-11-19T14:19:46;-4.60;88.40
42095;DHT22;27753;55.724;37.612;2023-11-19T14:22:12;-4.50;88.50
42095;DHT22;27753;55.724;37.612;2023-11-19T14:24:38;-4.60;88.40
42095;DHT22;27753;55.724;37.612;2023-11-19T14:27:06;-4.70;88.20
42095;DHT22;27753;55.724;37.612;2023-11-19T14:29:32;-4.80;88.60
42095;DHT22;27753;55.724;37.612;2023-11-19T14:31:58;-4.80;89.00
42095;DHT22;27753;55.724;37.612;2023-11-19T14:34:24;-4.80;89.10
42095;DHT22;27753;55.724;37.612;2023-11-19T14:36:52;-4.70;89.10
42095;DHT22;27753;55.724;37.612;2023-11-19T14:39:19;-4.70;89.20
42095;DHT22;27753;55.724;37.612;2023-11-19T14:41:45;-4.70;89.30
42095;DHT22;27753;55.724;37.612;2023-11-19T14:44:11;-4.80;89.60
42095;DHT22;27753;55.724;37.612;2023-11-19T14:46:39;-4.80;89.60
42095;DHT22;27753;55.724;37.612;2023-11-19T14:49:05;-4.90;89.90
42095;DHT22;27753;55.724;37.612;2023-11-19T14:51:38;-4.90;90.10
42095;DHT22;27753;55.724;37.612;2023-11-19T14:54:05;-5.00;90.20
42095;DHT22;27753;55.724;37.612;2023-11-19T14:56:31;-5.00;90.30
42095;DHT22;27753;55.724;37.612;2023-11-19T14:58:57;-5.00;90.40
42095;DHT22;27753;55.724;37.612;2023-11-19T15:01:24;-5.00;90.50
42095;DHT22;27753;55.724;37.612;2023-11-19T15:03:50;-5.00;90.50
42095;DHT22;27753;55.724;37.612;2023-11-19T15:06:16;-5.00;90.50
42095;DHT22;27753;55.724;37.612;2023-11-19T15:08:42;-5.00;90.60
42095;DHT22;27753;55.724;37.612;2023-11-19T15:11:10;-5.00;90.70
42095;DHT22;27753;55.724;37.612;2023-11-19T15:13:37;-4.90;90.80
42095;DHT22;27753;55.724;37.612;2023-11-19T15:16:04;-4.90;90.70
42095;DHT22;27753;55.724;37.612;2023-11-19T15:18:36;-4.90;90.70
42095;DHT22;27753;55.724;37.612;2023-11-19T15:21:03;-4.90;90.70
42095;DHT22;27753;55.724;37.612;2023-11-19T15:23:29;-4.90;90.70
42095;DHT22;27753;55.724;37.612;2023-11-19T15:25:55;-4.90;90.80
42095;DHT22;27753;55.724;37.612;2023-11-19T15:28:21;-4.90;90.80
42095;DHT22;27753;55.724;37.612;2023-11-19T15:30:47;-4.90;90.90
42095;DHT22;27753;55.724;37.612;2023-11-19T15:33:13;-4.80;91.00